sensor_id;sensor_type;location;lat;lon;timestamp;P1;durP1;ratioP1;P2;durP2;ratioP2
14048;SDS011;7099;53.922;10.728;2024-03-25T00:01:29;12.90;;;2.80;;
14048;SDS011;7099;53.922;10.728;2024-03-25T00:05:34;2.47;;;2.10;;
14048;SDS011;7099;53.922;10.728;2024-03-25T00:09:38;2.33;;;2.13;;
14048;SDS011;7099;53.922;10.728;2024-03-25T00:13:43;2.37;;;2.17;;
14048;SDS011;7099;53.922;10.728;2024-03-25T00:17:47;2.70;;;2.20;;
14048;SDS011;7099;53.922;10.728;2024-03-25T00:21:51;2.87;;;1.87;;
14048;SDS011;7099;53.922;10.728;2024-03-25T00:25:56;2.40;;;2.20;;
14048;SDS011;7099;53.922;10.728;2024-03-25T00:30:01;2.30;;;2.03;;
14048;SDS011;7099;53.922;10.728;2024-03-25T00:34:06;2.30;;;2.10;;
14048;SDS011;7099;53.922;10.728;2024-03-25T00:38:10;2.43;;;2.23;;
14048;SDS011;7099;53.922;10.728;2024-03-25T00:42:15;3.83;;;2.47;;
14048;SDS011;7099;53.922;10.728;2024-03-25T00:46:20;3.30;;;2.50;;
14048;SDS011;7099;53.922;10.728;2024-03-25T00:50:28;4.10;;;2.40;;
14048;SDS011;7099;53.922;10.728;2024-03-25T00:54:32;9.40;;;2.60;;
14048;SDS011;7099;53.922;10.728;2024-03-25T00:58:37;2.57;;;2.37;;
14048;SDS011;7099;53.922;10.728;2024-03-25T01:02:41;4.40;;;2.30;;
14048;SDS011;7099;53.922;10.728;2024-03-25T01:06:46;3.00;;;2.37;;
14048;SDS011;7099;53.922;10.728;2024-03-25T01:10:52;3.33;;;2.20;;
14048;SDS011;7099;53.922;10.728;2024-03-25T01:14:56;3.27;;;2.47;;
14048;SDS011;7099;53.922;10.728;2024-03-25T01:19:01;3.17;;;2.37;;
14048;SDS011;7099;53.922;10.728;2024-03-25T01:23:06;3.27;;;2.33;;
14048;SDS011;7099;53.922;10.728;2024-03-25T01:27:11;3.60;;;2.43;;
14048;SDS011;7099;53.922;10.728;2024-03-25T01:31:15;4.33;;;2.73;;
14048;SDS011;7099;53.922;10.728;2024-03-25T01:35:20;4.00;;;2.40;;
14048;SDS011;7099;53.922;10.728;2024-03-25T01:39:24;3.80;;;2.53;;
14048;SDS011;7099;53.922;10.728;2024-03-25T01:43:29;2.53;;;2.00;;
14048;SDS011;7099;53.922;10.728;2024-03-25T01:47:33;1.50;;;1.40;;
14048;SDS011;7099;53.922;10.728;2024-03-25T01:51:39;3.30;;;1.83;;
14048;SDS011;7099;53.922;10.728;2024-03-25T01:55:45;1.70;;;1.60;;
14048;SDS011;7099;53.922;10.728;2024-03-25T01:59:52;3.30;;;2.10;;
14048;SDS011;7099;53.922;10.728;2024-03-25T02:03:57;2.60;;;2.40;;
14048;SDS011;7099;53.922;10.728;2024-03-25T02:08:02;2.27;;;2.00;;
14048;SDS011;7099;53.922;10.728;2024-03-25T02:12:08;3.37;;;2.53;;
14048;SDS011;7099;53.922;10.728;2024-03-25T02:16:13;3.30;;;2.57;;
14048;SDS011;7099;53.922;10.728;2024-03-25T02:20:17;3.40;;;2.57;;
14048;SDS011;7099;53.922;10.728;2024-03-25T02:24:22;5.27;;;2.27;;
14048;SDS011;7099;53.922;10.728;2024-03-25T02:28:28;2.13;;;1.90;;
14048;SDS011;7099;53.922;10.728;2024-03-25T02:32:35;2.73;;;2.23;;
14048;SDS011;7099;53.922;10.728;2024-03-25T02:36:40;3.47;;;2.10;;
14048;SDS011;7099;53.922;10.728;2024-03-25T02:40:45;2.70;;;2.50;;
14048;SDS011;7099;53.922;10.728;2024-03-25T02:44:49;4.33;;;2.50;;
14048;SDS011;7099;53.922;10.728;2024-03-25T02:48:54;4.43;;;2.73;;
14048;SDS011;7099;53.922;10.728;2024-03-25T02:52:59;3.37;;;2.50;;
14048;SDS011;7099;53.922;10.728;2024-03-25T02:57:04;3.07;;;2.37;;
14048;SDS011;7099;53.922;10.728;2024-03-25T03:01:08;2.80;;;2.20;;
14048;SDS011;7099;53.922;10.728;2024-03-25T03:05:13;3.20;;;2.50;;
14048;SDS011;7099;53.922;10.728;2024-03-25T03:09:17;2.60;;;2.40;;
14048;SDS011;7099;53.922;10.728;2024-03-25T03:13:22;5.83;;;3.13;;
14048;SDS011;7099;53.922;10.728;2024-03-25T03:17:26;4.27;;;2.83;;
14048;SDS011;7099;53.922;10.728;2024-03-25T03:21:31;3.70;;;2.83;;
14048;SDS011;7099;53.922;10.728;2024-03-25T03:25:36;5.20;;;3.23;;
14048;SDS011;7099;53.922;10.728;2024-03-25T03:29:40;4.83;;;2.93;;
14048;SDS011;7099;53.922;10.728;2024-03-25T03:33:45;4.10;;;3.00;;
14048;SDS011;7099;53.922;10.728;2024-03-25T03:37:49;3.63;;;3.13;;
14048;SDS011;7099;53.922;10.728;2024-03-25T03:41:54;5.47;;;3.50;;
14048;SDS011;7099;53.922;10.728;2024-03-25T03:45:58;3.30;;;3.00;;
14048;SDS011;7099;53.922;10.728;2024-03-25T03:50:03;4.90;;;3.20;;
14048;SDS011;7099;53.922;10.728;2024-03-25T03:54:08;4.93;;;2.97;;
14048;SDS011;7099;53.922;10.728;2024-03-25T03:58:13;3.90;;;3.10;;
14048;SDS011;7099;53.922;10.728;2024-03-25T04:02:17;5.70;;;2.97;;
14048;SDS011;7099;53.922;10.728;2024-03-25T04:06:22;10.10;;;2.87;;
14048;SDS011;7099;53.922;10.728;2024-03-25T04:10:26;9.47;;;3.23;;
14048;SDS011;7099;53.922;10.728;2024-03-25T04:14:31;5.17;;;2.87;;
14048;SDS011;7099;53.922;10.728;2024-03-25T04:18:36;3.47;;;2.73;;
14048;SDS011;7099;53.922;10.728;2024-03-25T04:22:44;4.70;;;3.03;;
14048;SDS011;7099;53.922;10.728;2024-03-25T04:26:49;5.60;;;2.10;;
14048;SDS011;7099;53.922;10.728;2024-03-25T04:30:54;5.80;;;2.70;;
14048;SDS011;7099;53.922;10.728;2024-03-25T04:34:59;4.03;;;2.60;;
14048;SDS011;7099;53.922;10.728;2024-03-25T04:39:03;7.67;;;2.67;;
14048;SDS011;7099;53.922;10.728;2024-03-25T04:43:12;5.43;;;2.53;;
14048;SDS011;7099;53.922;10.728;2024-03-25T04:47:16;7.50;;;3.20;;
14048;SDS011;7099;53.922;10.728;2024-03-25T04:51:22;6.60;;;3.40;;
14048;SDS011;7099;53.922;10.728;2024-03-25T04:55:26;3.50;;;2.60;;
14048;SDS011;7099;53.922;10.728;2024-03-25T04:59:31;5.90;;;3.13;;
14048;SDS011;7099;53.922;10.728;2024-03-25T05:03:37;4.00;;;2.63;;
14048;SDS011;7099;53.922;10.728;2024-03-25T05:07:42;4.20;;;3.00;;
14048;SDS011;7099;53.922;10.728;2024-03-25T05:11:46;4.60;;;3.00;;
14048;SDS011;7099;53.922;10.728;2024-03-25T05:15:51;4.03;;;2.70;;
14048;SDS011;7099;53.922;10.728;2024-03-25T05:19:56;11.07;;;2.67;;
14048;SDS011;7099;53.922;10.728;2024-03-25T05:24:01;9.53;;;3.73;;
14048;SDS011;7099;53.922;10.728;2024-03-25T05:28:05;7.20;;;2.90;;
14048;SDS011;7099;53.922;10.728;2024-03-25T05:32:11;5.40;;;2.40;;
14048;SDS011;7099;53.922;10.728;2024-03-25T05:36:16;3.90;;;2.23;;
14048;SDS011;7099;53.922;10.728;2024-03-25T05:40:21;5.03;;;2.47;;
14048;SDS011;7099;53.922;10.728;2024-03-25T05:44:25;6.40;;;2.60;;
14048;SDS011;7099;53.922;10.728;2024-03-25T05:48:30;5.60;;;2.70;;
14048;SDS011;7099;53.922;10.728;2024-03-25T05:52:35;3.13;;;2.00;;
14048;SDS011;7099;53.922;10.728;2024-03-25T05:56:39;4.70;;;2.40;;
14048;SDS011;7099;53.922;10.728;2024-03-25T06:00:46;3.23;;;2.13;;
14048;SDS011;7099;53.922;10.728;2024-03-25T06:04:52;5.93;;;2.57;;
14048;SDS011;7099;53.922;10.728;2024-03-25T06:08:56;2.93;;;1.77;;
14048;SDS011;7099;53.922;10.728;2024-03-25T06:13:01;3.03;;;1.77;;
14048;SDS011;7099;53.922;10.728;2024-03-25T06:17:05;1.87;;;1.70;;
14048;SDS011;7099;53.922;10.728;2024-03-25T06:21:10;2.80;;;1.77;;
14048;SDS011;7099;53.922;10.728;2024-03-25T06:25:14;2.23;;;1.50;;
14048;SDS011;7099;53.922;10.728;2024-03-25T06:29:19;2.00;;;1.70;;
14048;SDS011;7099;53.922;10.728;2024-03-25T06:33:23;4.00;;;2.20;;
14048;SDS011;7099;53.922;10.728;2024-03-25T06:38:00;2.10;;;1.53;;
14048;SDS011;7099;53.922;10.728;2024-03-25T06:42:04;2.33;;;1.47;;
14048;SDS011;7099;53.922;10.728;2024-03-25T06:46:09;2.07;;;1.70;;
14048;SDS011;7099;53.922;10.728;2024-03-25T06:50:14;5.73;;;2.00;;
14048;SDS011;7099;53.922;10.728;2024-03-25T06:54:18;3.73;;;2.33;;
14048;SDS011;7099;53.922;10.728;2024-03-25T06:58:23;4.40;;;1.87;;
14048;SDS011;7099;53.922;10.728;2024-03-25T07:02:29;4.97;;;2.00;;
14048;SDS011;7099;53.922;10.728;2024-03-25T07:06:34;4.97;;;2.23;;
14048;SDS011;7099;53.922;10.728;2024-03-25T07:10:38;5.40;;;2.27;;
14048;SDS011;7099;53.922;10.728;2024-03-25T07:14:47;3.23;;;2.13;;
14048;SDS011;7099;53.922;10.728;2024-03-25T07:18:52;4.13;;;1.83;;
14048;SDS011;7099;53.922;10.728;2024-03-25T07:22:56;1.80;;;1.50;;
14048;SDS011;7099;53.922;10.728;2024-03-25T07:27:01;2.93;;;1.90;;
14048;SDS011;7099;53.922;10.728;2024-03-25T07:31:06;4.27;;;2.10;;
14048;SDS011;7099;53.922;10.728;2024-03-25T07:35:10;2.60;;;1.80;;
14048;SDS011;7099;53.922;10.728;2024-03-25T07:39:15;4.50;;;1.70;;
14048;SDS011;7099;53.922;10.728;2024-03-25T07:59:38;4.07;;;1.67;;
14048;SDS011;7099;53.922;10.728;2024-03-25T08:03:42;2.63;;;1.53;;
14048;SDS011;7099;53.922;10.728;2024-03-25T08:07:47;5.83;;;1.67;;
14048;SDS011;7099;53.922;10.728;2024-03-25T08:11:51;2.70;;;1.50;;
14048;SDS011;7099;53.922;10.728;2024-03-25T08:15:56;3.80;;;1.90;;
14048;SDS011;7099;53.922;10.728;2024-03-25T08:20:00;1.60;;;1.30;;
14048;SDS011;7099;53.922;10.728;2024-03-25T08:24:05;2.70;;;1.57;;
14048;SDS011;7099;53.922;10.728;2024-03-25T08:28:10;8.07;;;1.93;;
14048;SDS011;7099;53.922;10.728;2024-03-25T08:32:14;1.33;;;1.20;;
14048;SDS011;7099;53.922;10.728;2024-03-25T08:36:19;4.20;;;1.30;;
14048;SDS011;7099;53.922;10.728;2024-03-25T08:40:23;3.17;;;1.30;;
14048;SDS011;7099;53.922;10.728;2024-03-25T08:44:28;1.90;;;1.30;;
14048;SDS011;7099;53.922;10.728;2024-03-25T08:48:32;1.73;;;1.20;;
14048;SDS011;7099;53.922;10.728;2024-03-25T08:52:37;4.70;;;1.20;;
14048;SDS011;7099;53.922;10.728;2024-03-25T08:56:43;5.33;;;1.33;;
14048;SDS011;7099;53.922;10.728;2024-03-25T09:00:48;4.93;;;1.60;;
14048;SDS011;7099;53.922;10.728;2024-03-25T09:04:53;5.77;;;2.00;;
14048;SDS011;7099;53.922;10.728;2024-03-25T09:08:57;7.07;;;1.10;;
14048;SDS011;7099;53.922;10.728;2024-03-25T09:13:20;1.97;;;1.43;;
14048;SDS011;7099;53.922;10.728;2024-03-25T09:17:25;5.53;;;1.30;;
14048;SDS011;7099;53.922;10.728;2024-03-25T09:21:30;5.20;;;1.70;;
14048;SDS011;7099;53.922;10.728;2024-03-25T09:25:34;4.53;;;1.70;;
14048;SDS011;7099;53.922;10.728;2024-03-25T09:29:39;4.10;;;1.00;;
14048;SDS011;7099;53.922;10.728;2024-03-25T09:33:43;1.90;;;1.40;;
14048;SDS011;7099;53.922;10.728;2024-03-25T09:37:48;2.30;;;1.20;;
14048;SDS011;7099;53.922;10.728;2024-03-25T09:41:55;7.17;;;1.43;;
14048;SDS011;7099;53.922;10.728;2024-03-25T09:46:01;2.13;;;1.30;;
14048;SDS011;7099;53.922;10.728;2024-03-25T09:50:06;2.40;;;1.03;;
14048;SDS011;7099;53.922;10.728;2024-03-25T09:54:12;4.43;;;1.77;;
14048;SDS011;7099;53.922;10.728;2024-03-25T09:58:17;4.77;;;1.20;;
14048;SDS011;7099;53.922;10.728;2024-03-25T10:02:23;7.17;;;1.80;;
14048;SDS011;7099;53.922;10.728;2024-03-25T10:06:30;6.20;;;1.80;;
14048;SDS011;7099;53.922;10.728;2024-03-25T10:10:36;5.23;;;1.73;;
14048;SDS011;7099;53.922;10.728;2024-03-25T10:14:43;4.90;;;1.60;;
14048;SDS011;7099;53.922;10.728;2024-03-25T10:18:48;5.43;;;1.77;;
14048;SDS011;7099;53.922;10.728;2024-03-25T10:22:52;6.20;;;1.50;;
14048;SDS011;7099;53.922;10.728;2024-03-25T10:26:57;8.63;;;1.60;;
14048;SDS011;7099;53.922;10.728;2024-03-25T10:31:03;3.60;;;1.50;;
14048;SDS011;7099;53.922;10.728;2024-03-25T10:35:08;5.40;;;1.70;;
14048;SDS011;7099;53.922;10.728;2024-03-25T10:39:12;7.90;;;1.77;;
14048;SDS011;7099;53.922;10.728;2024-03-25T10:43:18;2.73;;;1.13;;
14048;SDS011;7099;53.922;10.728;2024-03-25T10:47:26;1.80;;;1.30;;
14048;SDS011;7099;53.922;10.728;2024-03-25T10:51:34;3.07;;;1.53;;
14048;SDS011;7099;53.922;10.728;2024-03-25T10:55:40;5.67;;;1.37;;
14048;SDS011;7099;53.922;10.728;2024-03-25T10:59:45;1.93;;;1.10;;
14048;SDS011;7099;53.922;10.728;2024-03-25T11:03:51;3.57;;;1.10;;
14048;SDS011;7099;53.922;10.728;2024-03-25T11:07:56;2.20;;;1.10;;
14048;SDS011;7099;53.922;10.728;2024-03-25T11:12:03;2.33;;;1.23;;
14048;SDS011;7099;53.922;10.728;2024-03-25T11:16:08;2.30;;;1.30;;
14048;SDS011;7099;53.922;10.728;2024-03-25T11:20:17;2.93;;;1.40;;
14048;SDS011;7099;53.922;10.728;2024-03-25T11:24:31;1.83;;;1.10;;
14048;SDS011;7099;53.922;10.728;2024-03-25T11:28:36;5.17;;;1.60;;
14048;SDS011;7099;53.922;10.728;2024-03-25T11:32:51;2.93;;;1.20;;
14048;SDS011;7099;53.922;10.728;2024-03-25T11:36:57;2.13;;;1.20;;
14048;SDS011;7099;53.922;10.728;2024-03-25T11:41:01;4.40;;;1.50;;
14048;SDS011;7099;53.922;10.728;2024-03-25T11:45:07;6.83;;;1.80;;
14048;SDS011;7099;53.922;10.728;2024-03-25T11:49:20;4.43;;;1.37;;
14048;SDS011;7099;53.922;10.728;2024-03-25T11:53:25;7.13;;;1.90;;
14048;SDS011;7099;53.922;10.728;2024-03-25T11:57:31;6.50;;;1.50;;
14048;SDS011;7099;53.922;10.728;2024-03-25T12:01:36;7.87;;;1.40;;
14048;SDS011;7099;53.922;10.728;2024-03-25T12:05:42;6.53;;;1.47;;
14048;SDS011;7099;53.922;10.728;2024-03-25T12:09:46;4.90;;;1.90;;
14048;SDS011;7099;53.922;10.728;2024-03-25T12:14:09;8.00;;;1.73;;
14048;SDS011;7099;53.922;10.728;2024-03-25T12:18:14;8.60;;;1.67;;
14048;SDS011;7099;53.922;10.728;2024-03-25T12:22:19;5.10;;;2.13;;
14048;SDS011;7099;53.922;10.728;2024-03-25T12:26:24;8.63;;;1.83;;
14048;SDS011;7099;53.922;10.728;2024-03-25T12:30:28;7.83;;;2.00;;
14048;SDS011;7099;53.922;10.728;2024-03-25T12:34:33;6.23;;;2.30;;
14048;SDS011;7099;53.922;10.728;2024-03-25T12:38:37;6.87;;;2.00;;
14048;SDS011;7099;53.922;10.728;2024-03-25T12:42:42;5.37;;;1.90;;
14048;SDS011;7099;53.922;10.728;2024-03-25T12:46:46;3.53;;;1.50;;
14048;SDS011;7099;53.922;10.728;2024-03-25T12:50:52;8.70;;;2.03;;
14048;SDS011;7099;53.922;10.728;2024-03-25T12:54:58;4.77;;;1.80;;
14048;SDS011;7099;53.922;10.728;2024-03-25T12:59:02;8.27;;;2.13;;
14048;SDS011;7099;53.922;10.728;2024-03-25T13:07:12;7.10;;;1.90;;
14048;SDS011;7099;53.922;10.728;2024-03-25T13:15:21;2.57;;;1.17;;
14048;SDS011;7099;53.922;10.728;2024-03-25T13:19:26;8.60;;;1.53;;
14048;SDS011;7099;53.922;10.728;2024-03-25T13:23:32;4.20;;;1.20;;
14048;SDS011;7099;53.922;10.728;2024-03-25T13:27:37;4.50;;;1.60;;
14048;SDS011;7099;53.922;10.728;2024-03-25T13:31:41;6.33;;;1.37;;
14048;SDS011;7099;53.922;10.728;2024-03-25T13:35:46;3.40;;;1.30;;
14048;SDS011;7099;53.922;10.728;2024-03-25T13:39:51;6.70;;;1.90;;
14048;SDS011;7099;53.922;10.728;2024-03-25T13:43:57;5.67;;;1.53;;
14048;SDS011;7099;53.922;10.728;2024-03-25T13:48:01;4.30;;;1.40;;
14048;SDS011;7099;53.922;10.728;2024-03-25T13:52:05;5.80;;;1.67;;
14048;SDS011;7099;53.922;10.728;2024-03-25T14:00:14;3.97;;;1.40;;
14048;SDS011;7099;53.922;10.728;2024-03-25T14:12:28;4.43;;;1.47;;
14048;SDS011;7099;53.922;10.728;2024-03-25T14:16:33;5.20;;;1.40;;
14048;SDS011;7099;53.922;10.728;2024-03-25T14:45:09;6.63;;;1.60;;
14048;SDS011;7099;53.922;10.728;2024-03-25T14:57:23;7.13;;;1.23;;
14048;SDS011;7099;53.922;10.728;2024-03-25T15:01:27;5.40;;;1.13;;
14048;SDS011;7099;53.922;10.728;2024-03-25T15:05:35;4.73;;;1.30;;
14048;SDS011;7099;53.922;10.728;2024-03-25T15:09:39;4.97;;;1.30;;
14048;SDS011;7099;53.922;10.728;2024-03-25T15:13:44;5.33;;;1.33;;
14048;SDS011;7099;53.922;10.728;2024-03-25T15:17:49;4.40;;;1.10;;
14048;SDS011;7099;53.922;10.728;2024-03-25T15:21:54;6.83;;;1.53;;
14048;SDS011;7099;53.922;10.728;2024-03-25T15:25:58;4.03;;;1.27;;
14048;SDS011;7099;53.922;10.728;2024-03-25T15:30:06;3.10;;;1.20;;
14048;SDS011;7099;53.922;10.728;2024-03-25T15:34:11;3.90;;;1.20;;
14048;SDS011;7099;53.922;10.728;2024-03-25T15:38:16;2.17;;;1.20;;
14048;SDS011;7099;53.922;10.728;2024-03-25T15:42:21;4.90;;;1.13;;
14048;SDS011;7099;53.922;10.728;2024-03-25T15:46:26;2.77;;;1.00;;
14048;SDS011;7099;53.922;10.728;2024-03-25T15:50:30;5.30;;;1.47;;
14048;SDS011;7099;53.922;10.728;2024-03-25T15:54:35;8.97;;;2.33;;
14048;SDS011;7099;53.922;10.728;2024-03-25T15:58:39;4.33;;;1.63;;
14048;SDS011;7099;53.922;10.728;2024-03-25T16:02:44;5.07;;;1.97;;
14048;SDS011;7099;53.922;10.728;2024-03-25T16:06:49;2.37;;;1.30;;
14048;SDS011;7099;53.922;10.728;2024-03-25T16:10:53;5.10;;;2.00;;
14048;SDS011;7099;53.922;10.728;2024-03-25T16:14:59;4.30;;;1.40;;
14048;SDS011;7099;53.922;10.728;2024-03-25T16:19:03;3.33;;;1.10;;
14048;SDS011;7099;53.922;10.728;2024-03-25T16:23:08;6.03;;;1.97;;
14048;SDS011;7099;53.922;10.728;2024-03-25T16:27:13;3.53;;;1.17;;
14048;SDS011;7099;53.922;10.728;2024-03-25T16:31:17;6.10;;;1.60;;
14048;SDS011;7099;53.922;10.728;2024-03-25T16:35:22;5.27;;;1.40;;
14048;SDS011;7099;53.922;10.728;2024-03-25T16:39:27;9.00;;;1.63;;
14048;SDS011;7099;53.922;10.728;2024-03-25T16:43:31;5.50;;;1.43;;
14048;SDS011;7099;53.922;10.728;2024-03-25T16:47:36;7.10;;;1.50;;
14048;SDS011;7099;53.922;10.728;2024-03-25T16:51:40;7.30;;;2.00;;
14048;SDS011;7099;53.922;10.728;2024-03-25T16:55:45;5.60;;;1.47;;
14048;SDS011;7099;53.922;10.728;2024-03-25T16:59:53;11.60;;;4.37;;
14048;SDS011;7099;53.922;10.728;2024-03-25T17:03:57;5.97;;;2.67;;
14048;SDS011;7099;53.922;10.728;2024-03-25T17:08:02;6.90;;;1.63;;
14048;SDS011;7099;53.922;10.728;2024-03-25T17:12:07;7.67;;;1.80;;
14048;SDS011;7099;53.922;10.728;2024-03-25T17:16:12;10.90;;;1.70;;
14048;SDS011;7099;53.922;10.728;2024-03-25T17:20:16;5.03;;;1.43;;
14048;SDS011;7099;53.922;10.728;2024-03-25T17:24:21;11.10;;;2.20;;
14048;SDS011;7099;53.922;10.728;2024-03-25T17:28:25;6.03;;;2.00;;
14048;SDS011;7099;53.922;10.728;2024-03-25T17:32:32;6.43;;;1.90;;
14048;SDS011;7099;53.922;10.728;2024-03-25T17:36:37;3.30;;;2.10;;
14048;SDS011;7099;53.922;10.728;2024-03-25T17:40:41;5.70;;;2.43;;
14048;SDS011;7099;53.922;10.728;2024-03-25T17:44:49;9.23;;;2.67;;
14048;SDS011;7099;53.922;10.728;2024-03-25T17:48:53;5.70;;;2.10;;
14048;SDS011;7099;53.922;10.728;2024-03-25T17:52:58;6.60;;;1.93;;
14048;SDS011;7099;53.922;10.728;2024-03-25T17:57:03;7.70;;;3.13;;
14048;SDS011;7099;53.922;10.728;2024-03-25T18:01:07;11.00;;;3.13;;
14048;SDS011;7099;53.922;10.728;2024-03-25T18:05:12;14.53;;;1.57;;
14048;SDS011;7099;53.922;10.728;2024-03-25T18:09:17;19.20;;;2.40;;
14048;SDS011;7099;53.922;10.728;2024-03-25T18:13:21;6.00;;;1.80;;
14048;SDS011;7099;53.922;10.728;2024-03-25T18:17:25;8.20;;;1.87;;
14048;SDS011;7099;53.922;10.728;2024-03-25T18:25:36;3.93;;;1.60;;
14048;SDS011;7099;53.922;10.728;2024-03-25T18:29:42;4.63;;;2.63;;
14048;SDS011;7099;53.922;10.728;2024-03-25T18:33:48;5.23;;;2.60;;
14048;SDS011;7099;53.922;10.728;2024-03-25T18:37:53;7.07;;;2.30;;
14048;SDS011;7099;53.922;10.728;2024-03-25T18:41:57;5.70;;;2.20;;
14048;SDS011;7099;53.922;10.728;2024-03-25T18:46:02;7.30;;;2.20;;
14048;SDS011;7099;53.922;10.728;2024-03-25T18:50:07;3.90;;;2.40;;
14048;SDS011;7099;53.922;10.728;2024-03-25T18:54:12;7.00;;;2.17;;
14048;SDS011;7099;53.922;10.728;2024-03-25T18:58:17;4.83;;;2.10;;
14048;SDS011;7099;53.922;10.728;2024-03-25T19:02:21;4.70;;;2.10;;
14048;SDS011;7099;53.922;10.728;2024-03-25T19:06:26;5.70;;;2.10;;
14048;SDS011;7099;53.922;10.728;2024-03-25T19:10:30;4.77;;;2.67;;
14048;SDS011;7099;53.922;10.728;2024-03-25T19:14:35;7.37;;;2.80;;
14048;SDS011;7099;53.922;10.728;2024-03-25T19:26:49;7.70;;;2.17;;
14048;SDS011;7099;53.922;10.728;2024-03-25T19:30:54;3.20;;;2.30;;
14048;SDS011;7099;53.922;10.728;2024-03-25T19:34:58;7.37;;;2.90;;
14048;SDS011;7099;53.922;10.728;2024-03-25T19:39:03;8.73;;;2.40;;
14048;SDS011;7099;53.922;10.728;2024-03-25T19:43:08;6.03;;;2.60;;
14048;SDS011;7099;53.922;10.728;2024-03-25T19:47:13;11.97;;;2.83;;
14048;SDS011;7099;53.922;10.728;2024-03-25T19:51:17;8.70;;;2.90;;
14048;SDS011;7099;53.922;10.728;2024-03-25T19:55:22;10.73;;;3.13;;
14048;SDS011;7099;53.922;10.728;2024-03-25T19:59:26;6.90;;;2.63;;
14048;SDS011;7099;53.922;10.728;2024-03-25T20:03:31;6.90;;;2.30;;
14048;SDS011;7099;53.922;10.728;2024-03-25T20:07:36;6.83;;;2.90;;
14048;SDS011;7099;53.922;10.728;2024-03-25T20:11:40;9.53;;;3.50;;
14048;SDS011;7099;53.922;10.728;2024-03-25T20:15:44;10.13;;;4.40;;
14048;SDS011;7099;53.922;10.728;2024-03-25T20:19:49;20.93;;;6.70;;
14048;SDS011;7099;53.922;10.728;2024-03-25T20:27:58;12.70;;;5.40;;
14048;SDS011;7099;53.922;10.728;2024-03-25T20:32:02;14.37;;;4.63;;
14048;SDS011;7099;53.922;10.728;2024-03-25T20:36:07;8.27;;;4.30;;
14048;SDS011;7099;53.922;10.728;2024-03-25T20:40:12;11.17;;;3.80;;
14048;SDS011;7099;53.922;10.728;2024-03-25T20:44:17;10.70;;;6.37;;
14048;SDS011;7099;53.922;10.728;2024-03-25T20:48:21;13.27;;;7.63;;
14048;SDS011;7099;53.922;10.728;2024-03-25T20:52:26;13.43;;;7.50;;
14048;SDS011;7099;53.922;10.728;2024-03-25T20:56:30;16.20;;;8.50;;
14048;SDS011;7099;53.922;10.728;2024-03-25T21:00:35;18.50;;;7.17;;
14048;SDS011;7099;53.922;10.728;2024-03-25T21:08:44;11.33;;;5.40;;
14048;SDS011;7099;53.922;10.728;2024-03-25T21:12:49;9.20;;;5.07;;
14048;SDS011;7099;53.922;10.728;2024-03-25T21:16:53;12.40;;;6.27;;
14048;SDS011;7099;53.922;10.728;2024-03-25T21:20:59;11.47;;;6.07;;
14048;SDS011;7099;53.922;10.728;2024-03-25T21:25:03;13.77;;;6.00;;
14048;SDS011;7099;53.922;10.728;2024-03-25T21:29:10;11.50;;;5.73;;
14048;SDS011;7099;53.922;10.728;2024-03-25T21:33:14;8.00;;;4.70;;
14048;SDS011;7099;53.922;10.728;2024-03-25T21:37:19;10.83;;;5.00;;
14048;SDS011;7099;53.922;10.728;2024-03-25T21:45:30;9.10;;;4.87;;
14048;SDS011;7099;53.922;10.728;2024-03-25T21:53:39;11.60;;;5.40;;
14048;SDS011;7099;53.922;10.728;2024-03-25T22:18:06;15.65;;;6.40;;
14048;SDS011;7099;53.922;10.728;2024-03-25T22:22:10;13.50;;;6.90;;
14048;SDS011;7099;53.922;10.728;2024-03-25T22:34:23;10.80;;;6.17;;
14048;SDS011;7099;53.922;10.728;2024-03-25T22:38:28;13.97;;;6.50;;
14048;SDS011;7099;53.922;10.728;2024-03-25T22:42:33;14.10;;;5.07;;
14048;SDS011;7099;53.922;10.728;2024-03-25T22:46:38;12.20;;;5.70;;
14048;SDS011;7099;53.922;10.728;2024-03-25T22:50:42;15.10;;;6.17;;
14048;SDS011;7099;53.922;10.728;2024-03-25T22:54:58;10.40;;;5.50;;
14048;SDS011;7099;53.922;10.728;2024-03-25T22:59:04;13.03;;;5.60;;
14048;SDS011;7099;53.922;10.728;2024-03-25T23:03:08;10.17;;;6.40;;
14048;SDS011;7099;53.922;10.728;2024-03-25T23:07:13;9.37;;;5.13;;
14048;SDS011;7099;53.922;10.728;2024-03-25T23:11:18;7.47;;;4.90;;
14048;SDS011;7099;53.922;10.728;2024-03-25T23:15:22;7.20;;;4.20;;
14048;SDS011;7099;53.922;10.728;2024-03-25T23:19:27;8.50;;;4.50;;
14048;SDS011;7099;53.922;10.728;2024-03-25T23:23:31;7.90;;;3.97;;
14048;SDS011;7099;53.922;10.728;2024-03-25T23:27:36;8.13;;;4.90;;
14048;SDS011;7099;53.922;10.728;2024-03-25T23:31:41;5.87;;;4.20;;
14048;SDS011;7099;53.922;10.728;2024-03-25T23:35:45;8.67;;;4.77;;
14048;SDS011;7099;53.922;10.728;2024-03-25T23:39:49;9.80;;;4.17;;
14048;SDS011;7099;53.922;10.728;2024-03-25T23:43:54;16.53;;;4.57;;
14048;SDS011;7099;53.922;10.728;2024-03-25T23:47:58;8.87;;;4.33;;
14048;SDS011;7099;53.922;10.728;2024-03-25T23:52:03;7.23;;;5.30;;
14048;SDS011;7099;53.922;10.728;2024-03-25T23:56:08;8.37;;;3.93;;
